Time;durP1;ratioP1;P1;durP2;ratioP2;P2;SDS_P1;SDS_P2;PMS_P1;PMS_P2;Temp;Humidity;BMP_temperature;BMP_pressure;BME280_temperature;BME280_humidity;BME280_pressure;Samples;Min_cycle;Max_cycle;Signal;HPM_P1;HPM_P2
2021/10/11 00:02:08;;;;;;;13.10;9.98;;;19.90;75.40;;;;;;5058495;27;89884;-76
2021/10/11 00:04:40;;;;;;;13.40;10.40;;;19.90;75.40;;;;;;5043222;28;86903;-75
2021/10/11 00:07:08;;;;;;;12.88;10.32;;;19.90;75.40;;;;;;5042811;28;86892;-77
2021/10/11 00:10:03;;;;;;;12.25;9.98;;;19.90;75.40;;;;;;5025339;28;90117;-76
2021/10/11 00:12:31;;;;;;;13.10;9.65;;;19.90;75.40;;;;;;5030268;28;89042;-76
2021/10/11 00:14:57;;;;;;;14.85;10.48;;;19.90;75.40;;;;;;5044273;28;88047;-76
2021/10/11 00:17:30;;;;;;;11.68;9.50;;;19.90;75.40;;;;;;5043697;28;88267;-76
2021/10/11 00:19:55;;;;;;;14.02;10.45;;;19.90;75.40;;;;;;5025764;28;93395;-76
2021/10/11 00:22:33;;;;;;;12.68;9.88;;;19.90;75.40;;;;;;5043420;28;88345;-76
2021/10/11 00:24:59;;;;;;;13.50;10.88;;;19.90;75.40;;;;;;5025810;28;87008;-76
2021/10/11 00:27:24;;;;;;;11.50;9.30;;;19.90;75.30;;;;;;5024548;28;87518;-76
2021/10/11 00:30:29;;;;;;;11.90;9.90;;;19.90;75.30;;;;;;5043787;28;89992;-76
2021/10/11 00:32:54;;;;;;;;;;;19.90;75.20;;;;;;5024626;28;88392;-76
2021/10/11 00:35:37;;;;;;;15.30;10.32;;;19.90;75.10;;;;;;5039414;28;86885;-76
2021/10/11 00:38:03;;;;;;;11.80;9.27;;;19.90;75.10;;;;;;5025227;28;88812;-75
2021/10/11 00:40:51;;;;;;;12.00;10.00;;;19.90;75.00;;;;;;5044630;28;89587;-78
2021/10/11 00:43:16;;;;;;;12.98;10.00;;;19.90;75.00;;;;;;5024861;28;89665;-75
2021/10/11 00:46:38;;;;;;;13.48;9.82;;;19.90;74.90;;;;;;5025552;28;87955;-76
2021/10/11 00:49:15;;;;;;;14.95;10.05;;;19.90;74.80;;;;;;5025639;28;87063;-75
2021/10/11 00:51:42;;;;;;;15.20;10.60;;;19.90;74.80;;;;;;5043957;28;88637;-75
2021/10/11 00:54:29;;;;;;;13.05;9.57;;;19.90;74.80;;;;;;5043736;28;88392;-76
2021/10/11 00:56:54;;;;;;;17.05;10.75;;;19.90;74.80;;;;;;5045655;28;87010;-75
2021/10/11 00:59:36;;;;;;;12.82;9.57;;;19.90;74.80;;;;;;5026006;28;90011;-76
2021/10/11 01:02:02;;;;;;;15.57;9.93;;;19.90;74.80;;;;;;5017822;28;90014;-75
2021/10/11 01:04:28;;;;;;;12.10;9.57;;;19.90;74.80;;;;;;5027311;28;88155;-76
2021/10/11 01:06:59;;;;;;;12.30;10.25;;;19.90;74.80;;;;;;5027886;28;88022;-76
2021/10/11 01:09:32;;;;;;;11.43;9.68;;;19.90;74.80;;;;;;5044119;28;87098;-76
2021/10/11 01:23:40;;;;;;;12.50;9.63;;;19.90;74.80;;;;;;5022255;28;87029;-76
2021/10/11 01:26:15;;;;;;;12.65;10.40;;;19.90;74.80;;;;;;5007953;28;91538;-77
2021/10/11 01:28:41;;;;;;;12.40;10.07;;;19.90;74.70;;;;;;5020278;28;87018;-76
2021/10/11 01:31:07;;;;;;;12.38;9.82;;;19.90;74.70;;;;;;5040105;28;88331;-77
2021/10/11 01:34:10;;;;;;;13.50;10.20;;;19.90;74.70;;;;;;5007160;28;91584;-77
2021/10/11 01:36:36;;;;;;;11.50;9.48;;;19.90;74.60;;;;;;5028173;28;87719;-77
2021/10/11 01:39:12;;;;;;;12.90;10.23;;;19.90;74.60;;;;;;5007376;28;87111;-76
2021/10/11 01:41:38;;;;;;;11.13;9.07;;;19.90;74.60;;;;;;5040475;28;90426;-77
2021/10/11 01:44:30;;;;;;;13.35;10.00;;;19.90;74.60;;;;;;5007311;28;90965;-76
2021/10/11 01:46:56;;;;;;;11.38;9.48;;;19.90;74.60;;;;;;5006921;28;90307;-76
2021/10/11 01:53:20;;;;;;;12.18;9.40;;;19.90;74.60;;;;;;5023595;28;86411;-76
2021/10/11 01:55:45;;;;;;;12.15;9.75;;;19.90;74.50;;;;;;5024234;28;87989;-76
2021/10/11 01:58:11;;;;;;;10.27;8.98;;;19.90;74.60;;;;;;5023897;28;88155;-76
2021/10/11 02:01:07;;;;;;;13.45;10.55;;;19.90;74.60;;;;;;5023497;28;88005;-76
2021/10/11 02:03:32;;;;;;;12.95;9.45;;;19.90;74.60;;;;;;5010045;28;87307;-76
2021/10/11 02:06:05;;;;;;;11.85;9.38;;;19.90;74.70;;;;;;5023581;28;90481;-76
2021/10/11 02:08:31;;;;;;;9.87;8.40;;;19.90;74.70;;;;;;5023957;28;87960;-75
2021/10/11 02:11:24;;;;;;;12.57;10.02;;;19.90;74.70;;;;;;5024092;28;86995;-76
2021/10/11 02:14:05;;;;;;;12.10;8.85;;;19.90;74.60;;;;;;5018961;28;87454;-76
2021/10/11 02:16:32;;;;;;;11.25;9.10;;;19.90;74.70;;;;;;5024381;28;88122;-76
2021/10/11 02:18:58;;;;;;;12.00;8.95;;;19.90;74.70;;;;;;5005485;28;91218;-76
2021/10/11 02:21:23;;;;;;;11.35;9.30;;;19.90;74.70;;;;;;5023407;28;86898;-76
2021/10/11 03:08:23;;;;;;;10.98;9.07;;;19.80;74.20;;;;;;5018901;28;87094;-76
2021/10/11 03:10:48;;;;;;;11.30;9.38;;;19.80;74.30;;;;;;5022580;28;87089;-76
2021/10/11 03:13:31;;;;;;;10.35;8.70;;;19.80;74.20;;;;;;5004299;28;90167;-75
2021/10/11 03:15:57;;;;;;;12.27;9.60;;;19.80;74.20;;;;;;5003234;28;87669;-76
2021/10/11 03:18:22;;;;;;;10.82;8.55;;;19.80;74.30;;;;;;5022336;28;87833;-76
2021/10/11 03:21:06;;;;;;;10.57;8.57;;;19.80;74.30;;;;;;5004249;28;87076;-76
2021/10/11 03:23:31;;;;;;;12.05;9.98;;;19.80;74.30;;;;;;5005240;28;90363;-76
2021/10/11 03:26:11;;;;;;;11.57;9.27;;;19.80;74.30;;;;;;5002739;28;90276;-76
2021/10/11 03:28:36;;;;;;;11.52;9.13;;;19.80;74.30;;;;;;5021998;28;89168;-75
2021/10/11 03:31:07;;;;;;;11.52;8.93;;;19.80;74.30;;;;;;5004073;28;87300;-76
2021/10/11 03:33:33;;;;;;;11.23;8.93;;;19.80;74.30;;;;;;5020280;28;89538;-76
2021/10/11 03:36:05;;;;;;;11.20;9.52;;;19.80;74.30;;;;;;5036785;28;89486;-75
2021/10/11 03:38:46;;;;;;;10.23;8.93;;;19.80;74.20;;;;;;5021787;28;87174;-75
2021/10/11 03:41:11;;;;;;;10.55;8.82;;;19.80;74.30;;;;;;5020999;28;86988;-75
2021/10/11 03:43:37;;;;;;;11.30;8.73;;;19.80;74.20;;;;;;5020944;28;89755;-75
2021/10/11 03:46:05;;;;;;;10.25;8.95;;;19.70;74.80;;;;;;5004455;28;90607;-75
2021/10/11 03:48:31;;;;;;;10.55;9.00;;;19.80;74.20;;;;;;5021689;28;88418;-76
2021/10/11 03:50:58;;;;;;;10.25;8.52;;;19.70;74.80;;;;;;5021629;28;87951;-76
2021/10/11 03:53:23;;;;;;;11.63;8.77;;;19.80;74.30;;;;;;5021825;28;87118;-76
2021/10/11 03:55:52;;;;;;;10.65;8.90;;;19.70;74.30;;;;;;5021306;28;88260;-76
2021/10/11 03:58:18;;;;;;;10.93;8.50;;;19.70;74.20;;;;;;5020434;28;90267;-76
2021/10/11 04:00:51;;;;;;;10.05;8.73;;;19.70;74.30;;;;;;5003432;28;86992;-75
2021/10/11 04:03:16;;;;;;;10.30;8.43;;;19.70;74.30;;;;;;5018727;28;88804;-76
2021/10/11 04:05:45;;;;;;;11.30;9.07;;;19.70;74.20;;;;;;5021677;28;88103;-76
2021/10/11 04:08:20;;;;;;;10.90;9.10;;;19.70;74.30;;;;;;5021679;28;87653;-76
2021/10/11 04:11:03;;;;;;;9.43;7.95;;;19.70;74.40;;;;;;5043662;27;87099;-77
2021/10/11 04:13:28;;;;;;;10.97;8.43;;;19.70;74.50;;;;;;5020035;28;87543;-74
2021/10/11 04:15:54;;;;;;;10.00;8.20;;;19.70;74.50;;;;;;5020423;28;88896;-75
2021/10/11 04:18:29;;;;;;;10.23;8.00;;;19.70;74.50;;;;;;5021024;28;88947;-75
2021/10/11 04:20:55;;;;;;;9.90;8.32;;;19.70;74.60;;;;;;5020914;28;87001;-75
2021/10/11 04:23:20;;;;;;;10.07;7.97;;;19.60;74.60;;;;;;5036178;28;88487;-76
2021/10/11 04:25:46;;;;;;;10.07;8.77;;;19.60;74.60;;;;;;5020335;28;87931;-75
2021/10/11 04:28:13;;;;;;;10.05;8.15;;;19.60;74.60;;;;;;5038514;27;88653;-75
2021/10/11 04:30:57;;;;;;;9.13;7.97;;;19.60;74.60;;;;;;5002980;28;87035;-75
2021/10/11 04:33:23;;;;;;;9.60;8.20;;;19.60;74.70;;;;;;5021297;28;87272;-75
2021/10/11 04:36:00;;;;;;;9.38;7.88;;;19.60;74.80;;;;;;5002542;28;91178;-76
2021/10/11 04:38:26;;;;;;;9.48;8.00;;;19.60;74.90;;;;;;5002672;28;89360;-76
2021/10/11 04:40:52;;;;;;;9.60;8.27;;;19.60;74.90;;;;;;5002477;28;88065;-74
2021/10/11 04:43:18;;;;;;;9.70;8.10;;;19.50;74.80;;;;;;5002391;28;90028;-75
2021/10/11 04:46:01;;;;;;;11.57;7.88;;;19.60;74.90;;;;;;5021045;28;87891;-75
2021/10/11 04:48:26;;;;;;;9.20;8.02;;;19.50;74.90;;;;;;5021363;28;87569;-75
2021/10/11 04:50:52;;;;;;;11.45;8.63;;;19.50;74.80;;;;;;5021245;28;86980;-75
2021/10/11 04:53:18;;;;;;;10.30;8.10;;;19.50;74.80;;;;;;5035820;28;88631;-75
2021/10/11 04:55:48;;;;;;;10.25;8.10;;;19.50;74.80;;;;;;5036148;28;89404;-76
2021/10/11 04:58:14;;;;;;;9.35;7.97;;;19.50;74.90;;;;;;5002700;28;92210;-75
2021/10/11 05:01:11;;;;;;;10.15;8.07;;;19.50;74.90;;;;;;5036166;28;87608;-75
2021/10/11 05:03:37;;;;;;;9.27;7.72;;;19.50;74.80;;;;;;5018545;28;86951;-74
2021/10/11 05:06:20;;;;;;;9.45;7.70;;;19.50;74.90;;;;;;5020156;28;89373;-75
2021/10/11 05:08:45;;;;;;;10.75;8.10;;;19.50;74.90;;;;;;5018469;28;88702;-75
2021/10/11 05:11:11;;;;;;;11.88;8.15;;;19.50;74.90;;;;;;5020284;28;87104;-75
2021/10/11 05:13:37;;;;;;;11.48;8.38;;;19.50;75.00;;;;;;5020589;28;87018;-75
2021/10/11 05:16:12;;;;;;;9.30;8.13;;;19.50;75.00;;;;;;5001521;28;91597;-75
2021/10/11 05:18:37;;;;;;;9.15;7.72;;;19.40;75.00;;;;;;5001523;28;89085;-76
2021/10/11 05:21:04;;;;;;;9.50;8.10;;;19.40;74.90;;;;;;5001998;28;87045;-75
2021/10/11 05:24:08;;;;;;;9.80;8.07;;;19.40;74.90;;;;;;5004813;28;88833;-76
2021/10/11 05:26:34;;;;;;;9.82;7.70;;;19.40;74.90;;;;;;5023797;28;88201;-75
2021/10/11 05:29:06;;;;;;;9.93;8.35;;;19.40;75.00;;;;;;5006170;28;91072;-75
2021/10/11 05:31:32;;;;;;;9.10;7.43;;;19.40;75.00;;;;;;5024524;28;87946;-75
2021/10/11 05:34:01;;;;;;;10.27;8.52;;;19.40;75.00;;;;;;5006443;28;90406;-76
2021/10/11 05:36:28;;;;;;;10.55;7.75;;;19.40;75.00;;;;;;5017984;28;88896;-76
2021/10/11 05:39:05;;;;;;;9.48;7.75;;;19.40;75.00;;;;;;5023851;28;87551;-75
2021/10/11 05:41:30;;;;;;;9.15;7.75;;;19.30;74.90;;;;;;5023935;28;86981;-77
2021/10/11 05:43:56;;;;;;;9.20;7.45;;;19.30;75.00;;;;;;5024393;28;86985;-75
2021/10/11 05:47:01;;;;;;;9.75;8.02;;;19.30;75.00;;;;;;5005284;28;92388;-75
2021/10/11 05:49:27;;;;;;;7.95;7.15;;;19.30;75.10;;;;;;5006046;28;89869;-75
2021/10/11 05:52:01;;;;;;;9.30;7.43;;;19.30;75.10;;;;;;5023828;28;86996;-76
2021/10/11 05:54:28;;;;;;;10.77;8.27;;;19.30;75.10;;;;;;5038951;28;89378;-76
2021/10/11 05:57:05;;;;;;;10.38;8.18;;;19.30;75.10;;;;;;5004959;28;92519;-76
2021/10/11 05:59:30;;;;;;;10.18;7.72;;;19.30;75.10;;;;;;5023145;28;87718;-75
2021/10/11 06:01:56;;;;;;;9.63;7.70;;;19.30;75.10;;;;;;5023587;28;87550;-75
2021/10/11 06:04:23;;;;;;;9.18;7.57;;;19.30;75.10;;;;;;5023632;28;88303;-75
2021/10/11 06:06:48;;;;;;;9.90;7.57;;;19.30;75.10;;;;;;5003964;28;90656;-77
2021/10/11 06:09:31;;;;;;;8.77;7.40;;;19.30;75.10;;;;;;5005275;28;90203;-75
2021/10/11 06:12:02;;;;;;;9.73;7.85;;;19.20;75.10;;;;;;5022555;28;87135;-78
2021/10/11 06:14:28;;;;;;;8.50;6.85;;;19.20;75.10;;;;;;5005400;28;90393;-73
2021/10/11 06:17:18;;;;;;;8.43;7.00;;;19.20;75.20;;;;;;5023429;28;88186;-74
2021/10/11 06:19:43;;;;;;;9.85;7.50;;;19.20;75.20;;;;;;5004161;28;87433;-75
2021/10/11 06:22:09;;;;;;;8.52;7.35;;;19.20;75.20;;;;;;5004963;28;88386;-75
2021/10/11 06:24:40;;;;;;;9.30;7.60;;;19.20;75.30;;;;;;5005421;28;90904;-75
2021/10/11 06:27:06;;;;;;;8.75;6.80;;;19.20;75.30;;;;;;5004733;28;90310;-75
2021/10/11 06:29:32;;;;;;;9.43;7.45;;;19.20;75.40;;;;;;5022533;28;87883;-74
2021/10/11 06:31:58;;;;;;;8.75;6.82;;;19.20;75.40;;;;;;5022095;28;87074;-75
2021/10/11 06:34:24;;;;;;;10.40;7.55;;;19.20;75.50;;;;;;5003307;28;88834;-77
2021/10/11 06:36:49;;;;;;;8.07;6.68;;;19.20;75.50;;;;;;5036366;28;89927;-75
2021/10/11 06:39:38;;;;;;;7.55;6.63;;;19.20;75.50;;;;;;5023630;28;88367;-76
2021/10/11 06:42:06;;;;;;;7.57;6.53;;;19.20;75.50;;;;;;5009273;28;87118;-77
2021/10/11 06:44:37;;;;;;;7.90;6.13;;;19.20;75.30;;;;;;5003154;28;88860;-75
2021/10/11 06:47:03;;;;;;;11.35;7.40;;;19.20;75.00;;;;;;5020826;28;88636;-74
2021/10/11 06:49:28;;;;;;;8.60;6.75;;;19.20;75.00;;;;;;5018524;28;88476;-74
2021/10/11 06:51:54;;;;;;;11.88;7.88;;;19.30;75.10;;;;;;5019315;28;87630;-76
2021/10/11 06:54:20;;;;;;;12.13;6.95;;;19.40;76.00;;;;;;5041016;28;90595;-80
2021/10/11 06:56:45;;;;;;;9.45;7.25;;;19.50;75.80;;;;;;5041984;27;90144;-77
2021/10/11 06:59:33;;;;;;;15.95;7.35;;;19.70;75.90;;;;;;5004595;28;91009;-74
2021/10/11 07:01:59;;;;;;;10.45;6.90;;;19.70;75.60;;;;;;5020605;28;87034;-77
2021/10/11 07:04:25;;;;;;;11.70;6.32;;;19.80;75.20;;;;;;5021949;28;89624;-75
2021/10/11 07:06:53;;;;;;;13.07;7.20;;;19.90;74.20;;;;;;5037546;27;89274;-75
2021/10/11 07:09:19;;;;;;;11.65;6.50;;;19.90;74.60;;;;;;5001514;28;89811;-76
2021/10/11 07:11:50;;;;;;;11.85;6.60;;;20.00;74.30;;;;;;5005209;28;87853;-77
2021/10/11 07:14:19;;;;;;;9.73;6.07;;;20.00;73.40;;;;;;5023834;28;87457;-77
2021/10/11 07:16:46;;;;;;;9.05;6.75;;;20.10;72.40;;;;;;5004830;28;88615;-75
2021/10/11 07:19:15;;;;;;;8.98;5.60;;;20.10;72.50;;;;;;5005410;28;88928;-74
2021/10/11 07:21:45;;;;;;;9.13;6.38;;;20.10;72.20;;;;;;5003037;28;87755;-73
2021/10/11 07:24:12;;;;;;;10.65;6.03;;;20.20;72.10;;;;;;5002851;28;88917;-74
2021/10/11 07:26:39;;;;;;;7.80;5.88;;;20.20;72.00;;;;;;5023653;28;87708;-78
2021/10/11 07:29:06;;;;;;;12.73;6.35;;;20.20;72.10;;;;;;5006193;28;90213;-78
2021/10/11 07:31:32;;;;;;;7.90;5.82;;;20.20;72.00;;;;;;5027837;28;87124;-76
2021/10/11 07:39:03;;;;;;;7.63;5.63;;;20.30;71.80;;;;;;5059232;22;88334;-82
2021/10/11 07:41:32;;;;;;;6.78;5.32;;;20.40;71.70;;;;;;5045788;22;87118;-84
2021/10/11 07:43:59;;;;;;;7.85;5.38;;;20.40;71.50;;;;;;5043658;27;86960;-82
2021/10/11 07:46:34;;;;;;;7.88;5.70;;;20.40;71.50;;;;;;5038222;28;89537;-83
2021/10/11 07:49:03;;;;;;;8.82;5.55;;;20.40;71.40;;;;;;5054639;28;87235;-83
2021/10/11 07:51:49;;;;;;;8.02;5.88;;;20.50;71.20;;;;;;5045746;28;87274;-84
2021/10/11 07:54:18;;;;;;;9.07;5.40;;;20.50;71.10;;;;;;5045940;27;86308;-84
2021/10/11 07:56:48;;;;;;;8.90;5.40;;;20.50;70.90;;;;;;5036973;28;88218;-84
2021/10/11 07:59:15;;;;;;;8.57;5.47;;;20.50;70.80;;;;;;5048410;22;88917;-73
2021/10/11 08:01:40;;;;;;;8.13;4.97;;;20.60;71.00;;;;;;5061174;27;88800;-73
2021/10/11 08:04:06;;;;;;;7.43;5.00;;;20.50;70.80;;;;;;5046076;27;87643;-79
2021/10/11 08:06:33;;;;;;;7.47;4.80;;;20.50;70.80;;;;;;5066853;27;88232;-74
2021/10/11 08:08:59;;;;;;;7.97;4.70;;;20.50;70.60;;;;;;5066036;27;87845;-76
2021/10/11 08:11:25;;;;;;;6.30;4.85;;;20.50;70.60;;;;;;5052861;27;87781;-74
2021/10/11 08:13:50;;;;;;;7.63;4.93;;;20.50;70.60;;;;;;5063057;27;87598;-74
2021/10/11 08:16:16;;;;;;;6.03;5.07;;;20.50;70.50;;;;;;5064438;27;88069;-75
2021/10/11 08:18:43;;;;;;;9.07;5.30;;;20.50;70.40;;;;;;5065106;27;88360;-78
2021/10/11 08:21:12;;;;;;;6.78;4.70;;;20.50;70.40;;;;;;5066887;27;87119;-76
2021/10/11 08:23:41;;;;;;;8.35;4.97;;;20.50;70.50;;;;;;5067028;27;89018;-76
2021/10/11 08:26:08;;;;;;;5.70;4.40;;;20.50;70.70;;;;;;5069000;27;89162;-75
2021/10/11 08:28:40;;;;;;;6.75;4.57;;;20.50;70.90;;;;;;5061259;27;91714;-75
2021/10/11 08:31:05;;;;;;;10.93;4.53;;;20.50;70.70;;;;;;5068310;27;87132;-74
2021/10/11 08:33:31;;;;;;;12.43;4.80;;;20.40;70.70;;;;;;5071735;27;87065;-74
2021/10/11 08:36:01;;;;;;;9.52;4.22;;;20.50;71.30;;;;;;5071611;27;89334;-74
2021/10/11 08:38:26;;;;;;;10.98;4.93;;;20.50;71.90;;;;;;5067920;27;88071;-75
2021/10/11 08:40:52;;;;;;;11.25;4.72;;;20.50;73.00;;;;;;5056672;27;87828;-78
2021/10/11 08:43:18;;;;;;;28.25;8.05;;;20.50;72.50;;;;;;5066964;27;86468;-78
2021/10/11 08:45:47;;;;;;;66.53;13.75;;;20.50;71.50;;;;;;5051175;27;90964;-75
2021/10/11 08:48:13;;;;;;;77.57;16.08;;;20.50;71.60;;;;;;5062749;27;88399;-75
2021/10/11 08:50:38;;;;;;;56.13;15.18;;;20.40;71.30;;;;;;5067145;27;88399;-75
2021/10/11 08:53:04;;;;;;;58.97;14.98;;;20.40;71.20;;;;;;5052075;27;90367;-75
2021/10/11 08:55:30;;;;;;;55.60;14.27;;;20.40;71.40;;;;;;5065588;27;88142;-76
2021/10/11 08:58:04;;;;;;;43.40;10.65;;;20.40;71.20;;;;;;5064635;27;88135;-76
2021/10/11 09:00:35;;;;;;;46.95;11.27;;;20.40;70.70;;;;;;5062547;27;87314;-75
2021/10/11 09:03:02;;;;;;;52.10;11.93;;;20.30;70.70;;;;;;5062238;27;87540;-76
2021/10/11 09:05:32;;;;;;;47.92;12.00;;;20.30;70.80;;;;;;5045145;27;89825;-78
2021/10/11 09:08:10;;;;;;;37.22;10.60;;;20.40;70.80;;;;;;5052830;27;89534;-75
2021/10/11 09:10:53;;;;;;;41.00;11.02;;;20.40;70.70;;;;;;5051212;27;87504;-76
2021/10/11 09:13:21;;;;;;;40.83;11.43;;;20.30;70.60;;;;;;5063987;27;87443;-77
2021/10/11 09:15:51;;;;;;;35.60;10.45;;;20.30;71.40;;;;;;5062789;27;89154;-75
2021/10/11 09:18:28;;;;;;;35.15;10.65;;;20.30;72.00;;;;;;5060187;27;88890;-78
2021/10/11 09:20:54;;;;;;;31.60;9.90;;;20.30;73.20;;;;;;5062068;27;87267;-75
2021/10/11 09:23:20;;;;;;;31.48;9.07;;;20.30;73.60;;;;;;5055422;27;87460;-77
2021/10/11 09:25:46;;;;;;;32.28;9.95;;;20.30;73.10;;;;;;5039473;27;91880;-78
2021/10/11 09:28:17;;;;;;;22.42;8.23;;;20.30;73.10;;;;;;5049088;27;88642;-73
2021/10/11 09:30:46;;;;;;;45.13;9.52;;;20.40;72.70;;;;;;5059104;27;88214;-74
2021/10/11 09:33:16;;;;;;;31.70;8.90;;;20.40;72.40;;;;;;5057759;27;87383;-71
2021/10/11 09:35:44;;;;;;;24.35;7.95;;;20.40;72.30;;;;;;5048560;27;90990;-72
2021/10/11 09:38:18;;;;;;;24.33;8.27;;;20.40;72.60;;;;;;5046433;27;90459;-72
2021/10/11 09:40:44;;;;;;;30.15;8.93;;;20.40;72.40;;;;;;5047524;27;88983;-77
2021/10/11 09:43:18;;;;;;;33.35;8.80;;;20.40;72.30;;;;;;5049998;27;88179;-73
2021/10/11 09:45:44;;;;;;;22.33;8.55;;;20.40;72.40;;;;;;5059090;27;87657;-75
2021/10/11 09:48:11;;;;;;;23.15;8.57;;;20.50;72.40;;;;;;5048942;27;89029;-75
2021/10/11 09:50:38;;;;;;;26.70;9.38;;;20.40;72.40;;;;;;5053338;27;87674;-72
2021/10/11 09:53:05;;;;;;;25.27;7.97;;;20.50;72.60;;;;;;5053086;27;88871;-77
2021/10/11 09:55:33;;;;;;;22.90;7.40;;;20.50;72.60;;;;;;5054745;27;88953;-73
2021/10/11 09:58:00;;;;;;;23.92;8.20;;;20.50;72.50;;;;;;5065009;27;88822;-73
2021/10/11 10:00:26;;;;;;;33.67;9.68;;;20.60;72.60;;;;;;5061514;27;88242;-73
2021/10/11 10:02:55;;;;;;;25.02;8.50;;;20.70;73.70;;;;;;5063095;27;87897;-72
2021/10/11 10:05:24;;;;;;;22.70;8.07;;;20.90;74.10;;;;;;5041675;27;92731;-75
2021/10/11 10:07:53;;;;;;;24.55;7.53;;;21.00;74.30;;;;;;5064887;27;88074;-72
2021/10/11 10:10:24;;;;;;;21.60;8.13;;;21.20;74.80;;;;;;5052154;27;87604;-73
2021/10/11 10:12:51;;;;;;;24.67;7.53;;;21.50;75.00;;;;;;5051026;27;87883;-74
2021/10/11 10:15:29;;;;;;;21.10;7.80;;;21.60;75.10;;;;;;5065357;27;87671;-73
2021/10/11 10:18:05;;;;;;;26.17;7.80;;;21.70;75.00;;;;;;5090965;22;88650;-71
2021/10/11 10:20:32;;;;;;;23.10;8.25;;;21.80;75.00;;;;;;5050166;27;87407;-73
2021/10/11 10:22:58;;;;;;;21.85;7.55;;;21.80;74.30;;;;;;5051130;27;89708;-69
2021/10/11 10:25:24;;;;;;;24.42;8.57;;;21.90;73.60;;;;;;5052741;27;88877;-72
2021/10/11 10:27:54;;;;;;;22.15;7.13;;;21.90;73.40;;;;;;5052133;27;87861;-73
2021/10/11 10:30:24;;;;;;;23.67;7.22;;;21.90;73.40;;;;;;5050550;27;89219;-70
2021/10/11 10:33:00;;;;;;;20.20;7.05;;;21.90;73.10;;;;;;5050845;27;89944;-70
2021/10/11 10:35:29;;;;;;;18.48;7.15;;;21.90;72.80;;;;;;5049646;27;88341;-71
2021/10/11 10:37:55;;;;;;;24.40;6.97;;;21.80;72.30;;;;;;5049845;27;90809;-70
2021/10/11 10:40:26;;;;;;;22.30;7.47;;;21.80;72.00;;;;;;5052800;27;88039;-73
2021/10/11 10:43:06;;;;;;;18.25;6.50;;;21.80;71.70;;;;;;5052297;27;87217;-70
2021/10/11 10:45:34;;;;;;;20.90;6.55;;;21.70;71.50;;;;;;5051831;27;88462;-70
2021/10/11 10:48:00;;;;;;;22.92;6.50;;;21.70;71.40;;;;;;5051399;27;87951;-71
2021/10/11 10:50:28;;;;;;;19.45;6.55;;;21.70;71.30;;;;;;5052590;27;87152;-70
2021/10/11 10:53:02;;;;;;;23.02;7.05;;;21.70;71.30;;;;;;5051872;27;87046;-71
2021/10/11 10:55:28;;;;;;;23.83;5.82;;;21.70;71.20;;;;;;5051330;27;89016;-71
2021/10/11 10:58:01;;;;;;;17.80;6.25;;;21.70;71.20;;;;;;5050278;27;91729;-71
2021/10/11 11:00:27;;;;;;;17.45;6.03;;;21.70;71.20;;;;;;5052205;27;87605;-71
2021/10/11 11:02:53;;;;;;;18.33;6.45;;;21.70;71.10;;;;;;5052218;27;87902;-71
2021/10/11 11:05:21;;;;;;;19.67;6.68;;;21.70;71.10;;;;;;5050732;27;88847;-71
2021/10/11 11:07:50;;;;;;;14.80;5.70;;;21.70;71.00;;;;;;5052074;27;89231;-71
2021/10/11 11:10:25;;;;;;;18.58;6.15;;;21.60;71.00;;;;;;5050210;27;88233;-72
2021/10/11 11:12:56;;;;;;;20.67;5.88;;;21.60;71.00;;;;;;5051296;27;87353;-71
2021/10/11 11:15:23;;;;;;;16.73;5.97;;;21.60;71.00;;;;;;5051692;27;89681;-73
2021/10/11 11:17:49;;;;;;;15.30;5.63;;;21.60;71.00;;;;;;5050873;27;88222;-71
2021/10/11 11:20:19;;;;;;;18.30;6.05;;;21.60;71.00;;;;;;5049629;27;88730;-70
2021/10/11 11:22:45;;;;;;;15.85;6.03;;;21.60;70.90;;;;;;5050045;27;90456;-73
2021/10/11 11:25:11;;;;;;;17.30;6.20;;;21.60;70.70;;;;;;5051047;27;88643;-70
2021/10/11 11:27:40;;;;;;;16.40;5.93;;;21.70;70.70;;;;;;5051575;27;88142;-72
2021/10/11 11:30:14;;;;;;;16.27;5.28;;;21.70;70.50;;;;;;5051045;27;88483;-70
2021/10/11 11:32:48;;;;;;;14.68;5.60;;;21.70;70.40;;;;;;5050226;27;87887;-71
2021/10/11 11:35:17;;;;;;;;;;;21.70;70.40;;;;;;5050748;27;88702;-71
2021/10/11 11:37:47;;;;;;;13.93;5.40;;;21.80;70.40;;;;;;5051957;27;87257;-70
2021/10/11 11:40:14;;;;;;;18.23;5.13;;;21.80;70.30;;;;;;5051445;27;88129;-70
2021/10/11 11:42:43;;;;;;;13.18;5.38;;;21.80;70.20;;;;;;5050768;27;87670;-70
2021/10/11 11:45:09;;;;;;;14.50;5.32;;;21.80;70.10;;;;;;5050176;27;89655;-70
2021/10/11 11:47:34;;;;;;;13.48;5.32;;;21.80;70.00;;;;;;5051362;27;89015;-72
2021/10/11 11:50:00;;;;;;;14.60;5.60;;;21.90;70.00;;;;;;5051316;27;87813;-71
2021/10/11 11:52:35;;;;;;;11.43;5.32;;;21.90;69.90;;;;;;5052129;27;87930;-71
2021/10/11 11:55:01;;;;;;;17.42;5.68;;;21.90;69.90;;;;;;5049524;27;91382;-70
2021/10/11 11:57:38;;;;;;;15.30;5.10;;;21.90;69.80;;;;;;5050946;27;87136;-72
2021/10/11 12:00:05;;;;;;;17.83;5.22;;;22.00;69.80;;;;;;5051188;27;87367;-71
2021/10/11 12:02:30;;;;;;;21.88;6.03;;;22.00;69.80;;;;;;5050867;27;87478;-70
2021/10/11 12:04:56;;;;;;;16.17;5.28;;;22.00;69.70;;;;;;5050340;27;87177;-70
2021/10/11 12:07:22;;;;;;;15.07;6.20;;;22.00;69.60;;;;;;5050387;27;87912;-70
2021/10/11 12:09:49;;;;;;;15.05;5.03;;;22.00;69.60;;;;;;5049968;27;88527;-71
2021/10/11 12:12:14;;;;;;;15.73;4.70;;;22.00;69.60;;;;;;5049422;27;87411;-71
2021/10/11 12:14:41;;;;;;;14.88;5.95;;;22.10;69.70;;;;;;5048791;27;89807;-73
2021/10/11 12:17:07;;;;;;;21.27;5.65;;;22.10;69.80;;;;;;5050394;27;88195;-70
2021/10/11 12:19:37;;;;;;;15.50;4.78;;;22.10;69.90;;;;;;5051393;27;88268;-71
2021/10/11 12:22:04;;;;;;;15.75;4.95;;;22.10;69.30;;;;;;5048688;27;90536;-72
2021/10/11 12:24:34;;;;;;;13.60;5.47;;;22.10;68.80;;;;;;5050517;27;88070;-70
2021/10/11 12:27:05;;;;;;;11.40;5.78;;;22.10;68.70;;;;;;5050800;27;88402;-71
2021/10/11 12:29:34;;;;;;;22.40;7.63;;;22.20;69.10;;;;;;5050729;27;88133;-70
2021/10/11 12:32:10;;;;;;;20.02;7.35;;;22.20;70.20;;;;;;5050427;27;88435;-71
2021/10/11 12:34:39;;;;;;;22.50;9.10;;;22.20;70.80;;;;;;5047897;27;92022;-72
2021/10/11 12:37:10;;;;;;;20.83;7.82;;;22.20;71.70;;;;;;5048516;27;91512;-69
2021/10/11 12:39:38;;;;;;;23.02;7.93;;;22.20;72.00;;;;;;5049080;27;87658;-69
2021/10/11 12:42:16;;;;;;;24.92;7.85;;;22.20;71.50;;;;;;5050003;27;87819;-71
2021/10/11 12:44:46;;;;;;;30.75;8.93;;;22.20;71.60;;;;;;5049633;27;88523;-68
2021/10/11 12:47:25;;;;;;;26.90;11.57;;;22.20;72.30;;;;;;5048045;27;90799;-69
2021/10/11 12:49:58;;;;;;;41.53;10.15;;;22.20;73.80;;;;;;5046925;27;87538;-68
2021/10/11 12:52:40;;;;;;;24.45;9.57;;;22.20;73.80;;;;;;5048867;27;87670;-68
2021/10/11 12:55:09;;;;;;;28.13;9.18;;;22.20;73.70;;;;;;5050149;27;88045;-69
2021/10/11 12:57:34;;;;;;;28.33;9.20;;;22.20;73.20;;;;;;5048587;27;91155;-70
2021/10/11 13:00:00;;;;;;;26.02;8.02;;;22.30;73.00;;;;;;5047971;27;88212;-69
2021/10/11 13:02:26;;;;;;;23.35;8.38;;;22.20;72.70;;;;;;5049278;27;88046;-69
2021/10/11 13:04:51;;;;;;;14.15;6.80;;;22.20;72.20;;;;;;5049942;27;87739;-69
2021/10/11 13:07:22;;;;;;;19.27;6.35;;;22.20;72.30;;;;;;5050212;27;88499;-69
2021/10/11 13:09:48;;;;;;;17.40;7.05;;;22.20;71.90;;;;;;5049891;27;87506;-72
2021/10/11 13:12:14;;;;;;;21.25;6.53;;;22.20;72.00;;;;;;5048885;27;87578;-69
2021/10/11 13:14:39;;;;;;;13.90;6.38;;;22.20;70.70;;;;;;5047843;27;91250;-71
2021/10/11 13:17:05;;;;;;;19.75;5.65;;;22.20;70.30;;;;;;5047252;27;89524;-69
2021/10/11 13:19:31;;;;;;;14.82;6.13;;;22.20;70.00;;;;;;5049835;27;87472;-69
2021/10/11 13:21:56;;;;;;;18.73;6.55;;;22.20;69.90;;;;;;5049500;27;87382;-69
2021/10/11 13:24:22;;;;;;;18.05;6.30;;;22.20;70.00;;;;;;5047182;27;92305;-69
2021/10/11 13:26:48;;;;;;;18.38;6.13;;;22.20;70.00;;;;;;5049043;27;89274;-69
2021/10/11 14:28:45;;;;;;;157.07;36.90;;;22.30;72.40;;;;;;5050663;27;88260;-69
2021/10/11 14:32:31;;;;;;;148.00;34.30;;;22.30;72.60;;;;;;5049819;27;90596;-70
2021/10/11 16:01:21;;;;;;;83.32;22.10;;;21.80;71.10;;;;;;5045761;27;87597;-71
2021/10/11 16:06:20;;;;;;;74.10;21.20;;;21.80;71.30;;;;;;5045237;27;89765;-71
2021/10/11 16:08:46;;;;;;;74.45;21.80;;;21.70;71.20;;;;;;5045630;27;89398;-70
2021/10/11 16:11:12;;;;;;;68.97;21.30;;;21.80;71.40;;;;;;5047654;27;88231;-69
2021/10/11 16:13:37;;;;;;;87.72;22.27;;;21.70;71.40;;;;;;5044979;27;88119;-72
2021/10/11 16:16:05;;;;;;;72.82;21.67;;;21.70;71.50;;;;;;5045749;27;88052;-70
2021/10/11 16:18:31;;;;;;;67.75;21.77;;;21.70;71.60;;;;;;5045198;27;88369;-68
2021/10/11 16:21:01;;;;;;;72.97;20.83;;;21.80;71.70;;;;;;5045758;27;88131;-71
2021/10/11 16:23:27;;;;;;;68.45;20.55;;;21.80;71.70;;;;;;5044699;27;90762;-70
2021/10/11 16:25:54;;;;;;;76.90;20.98;;;21.90;71.50;;;;;;5046515;27;88005;-71
2021/10/11 16:28:21;;;;;;;69.20;20.50;;;21.90;71.30;;;;;;5045604;27;88539;-69